createdAt,value
2018-09-29T00:02:08.826Z,2.17
2018-09-29T00:04:37.695Z,2.10
2018-09-29T00:07:06.924Z,1.90
2018-09-29T00:09:36.059Z,1.83
2018-09-29T00:12:05.254Z,2.13
2018-09-29T00:14:34.140Z,2.20
2018-09-29T00:17:03.731Z,1.90
2018-09-29T00:19:32.621Z,2.07
2018-09-29T00:22:02.543Z,2.20
2018-09-29T00:24:31.494Z,1.57
2018-09-29T00:27:00.600Z,2.10
2018-09-29T00:29:30.169Z,1.90
2018-09-29T00:31:59.123Z,1.97
2018-09-29T00:34:28.681Z,1.80
2018-09-29T00:36:57.551Z,1.73
2018-09-29T00:39:26.814Z,2.33
2018-09-29T00:41:57.156Z,1.67
2018-09-29T00:44:25.884Z,1.60
2018-09-29T00:46:55.370Z,1.73
2018-09-29T00:49:24.745Z,1.53
2018-09-29T00:51:53.949Z,2.15
2018-09-29T00:54:23.123Z,1.90
2018-09-29T00:56:52.299Z,2.27
2018-09-29T00:59:20.937Z,1.97
2018-09-29T01:01:49.791Z,2.43
2018-09-29T01:04:19.124Z,1.47
2018-09-29T01:06:48.150Z,1.27
2018-09-29T01:09:17.139Z,2.20
2018-09-29T01:11:46.660Z,2.25
2018-09-29T01:14:16.094Z,1.60
2018-09-29T01:16:45.141Z,1.50
2018-09-29T01:19:14.394Z,1.73
2018-09-29T01:21:43.279Z,2.10
2018-09-29T01:24:12.731Z,2.20
2018-09-29T01:26:42.088Z,2.03
2018-09-29T01:29:11.117Z,1.60
2018-09-29T01:31:39.966Z,1.70
2018-09-29T01:34:08.680Z,1.50
2018-09-29T01:36:37.332Z,1.77
2018-09-29T01:39:07.832Z,1.60
2018-09-29T01:41:36.622Z,1.80
2018-09-29T01:44:05.738Z,2.30
2018-09-29T01:46:35.781Z,2.70
2018-09-29T01:49:04.961Z,1.83
2018-09-29T01:51:34.216Z,2.17
2018-09-29T01:54:03.091Z,2.17
2018-09-29T01:56:31.853Z,1.80
2018-09-29T01:59:00.607Z,2.10
2018-09-29T02:01:30.136Z,1.93
2018-09-29T02:03:59.244Z,2.13
2018-09-29T02:06:28.451Z,1.70
2018-09-29T02:08:57.934Z,2.40
2018-09-29T02:11:27.105Z,2.10
2018-09-29T02:13:55.944Z,1.73
2018-09-29T02:16:25.261Z,2.20
2018-09-29T02:18:54.745Z,1.93
2018-09-29T02:21:23.595Z,1.73
2018-09-29T02:23:54.344Z,1.77
2018-09-29T02:26:23.383Z,1.40
2018-09-29T02:28:52.626Z,2.13
2018-09-29T02:31:21.585Z,1.82
2018-09-29T02:33:50.997Z,1.93
2018-09-29T02:36:19.880Z,1.60
2018-09-29T02:38:49.395Z,1.83
2018-09-29T02:41:18.282Z,1.47
2018-09-29T02:43:47.132Z,1.97
2018-09-29T02:46:16.165Z,1.50
2018-09-29T02:48:45.376Z,1.40
2018-09-29T02:51:14.576Z,1.67
2018-09-29T02:53:43.416Z,2.17
2018-09-29T02:56:12.192Z,1.93
2018-09-29T02:58:41.402Z,2.00
2018-09-29T03:01:10.427Z,2.07
2018-09-29T03:03:39.440Z,2.10
2018-09-29T03:06:09.131Z,1.60
2018-09-29T03:08:39.342Z,1.30
2018-09-29T03:11:08.390Z,2.03
2018-09-29T03:13:37.262Z,1.80
2018-09-29T03:16:06.776Z,1.77
2018-09-29T03:18:35.722Z,2.10
2018-09-29T03:21:04.349Z,1.87
2018-09-29T03:23:33.672Z,1.60
2018-09-29T03:26:03.740Z,2.33
2018-09-29T03:28:32.878Z,2.13
2018-09-29T03:31:02.417Z,1.60
2018-09-29T03:33:31.411Z,1.53
2018-09-29T03:36:00.298Z,1.63
2018-09-29T03:38:28.981Z,1.87
2018-09-29T03:40:57.705Z,2.00
2018-09-29T03:43:26.352Z,2.00
2018-09-29T03:45:55.533Z,2.00
2018-09-29T03:48:24.808Z,1.90
2018-09-29T03:50:53.980Z,2.00
2018-09-29T03:53:24.210Z,2.02
2018-09-29T03:55:53.602Z,1.77
2018-09-29T03:58:22.456Z,1.60
2018-09-29T04:00:52.086Z,1.77
2018-09-29T04:03:21.024Z,2.23
2018-09-29T04:05:50.047Z,1.30
2018-09-29T04:08:19.522Z,2.13
2018-09-29T04:10:48.565Z,1.70
2018-09-29T04:13:17.211Z,1.30
2018-09-29T04:15:46.211Z,2.40
2018-09-29T04:18:15.116Z,1.17
2018-09-29T04:20:43.946Z,1.63
2018-09-29T04:23:12.616Z,2.70
2018-09-29T04:25:42.070Z,1.63
2018-09-29T04:28:11.307Z,1.57
2018-09-29T04:30:40.590Z,1.97
2018-09-29T04:33:09.390Z,2.00
2018-09-29T04:35:40.013Z,1.43
2018-09-29T04:38:08.778Z,1.30
2018-09-29T04:40:38.377Z,1.87
2018-09-29T04:43:07.607Z,1.40
2018-09-29T04:45:36.764Z,1.20
2018-09-29T04:48:06.080Z,1.80
2018-09-29T04:50:35.616Z,1.73
2018-09-29T04:53:04.486Z,1.20
2018-09-29T04:55:33.642Z,1.67
2018-09-29T04:58:03.322Z,1.70
2018-09-29T05:00:32.177Z,1.37
2018-09-29T05:03:00.791Z,1.60
2018-09-29T05:05:29.656Z,1.90
2018-09-29T05:07:58.786Z,1.60
2018-09-29T05:10:28.163Z,1.20
2018-09-29T05:12:57.210Z,1.47
2018-09-29T05:15:25.951Z,1.07
2018-09-29T05:17:54.800Z,1.57
2018-09-29T05:20:23.896Z,1.93
2018-09-29T05:22:52.437Z,1.57
2018-09-29T05:25:21.258Z,1.50
2018-09-29T05:27:49.963Z,1.20
2018-09-29T05:30:18.951Z,1.70
2018-09-29T05:32:47.782Z,1.90
2018-09-29T05:35:16.441Z,2.20
2018-09-29T05:37:45.546Z,1.62
2018-09-29T05:40:15.491Z,1.77
2018-09-29T05:42:45.007Z,1.50
2018-09-29T05:45:14.261Z,2.20
2018-09-29T05:47:43.227Z,1.73
2018-09-29T05:50:11.857Z,1.60
2018-09-29T05:52:40.978Z,1.87
2018-09-29T05:55:11.037Z,1.93
2018-09-29T05:57:40.118Z,1.80
2018-09-29T06:00:08.835Z,1.63
2018-09-29T06:02:38.808Z,1.63
2018-09-29T06:05:07.473Z,1.57
2018-09-29T06:07:36.485Z,1.50
2018-09-29T06:10:06.545Z,1.47
2018-09-29T06:12:35.362Z,1.30
2018-09-29T06:15:05.188Z,1.67
2018-09-29T06:17:34.163Z,1.50
2018-09-29T06:20:03.453Z,1.80
2018-09-29T06:22:32.696Z,1.55
2018-09-29T06:25:02.058Z,1.87
2018-09-29T06:27:31.074Z,1.20
2018-09-29T06:30:00.152Z,2.47
2018-09-29T06:32:29.137Z,1.80
2018-09-29T06:34:58.819Z,1.23
2018-09-29T06:37:27.453Z,1.17
2018-09-29T06:39:56.367Z,1.67
2018-09-29T06:42:25.087Z,1.17
2018-09-29T06:44:54.707Z,1.67
2018-09-29T06:47:23.984Z,2.03
2018-09-29T06:49:52.983Z,2.27
2018-09-29T06:52:21.959Z,1.83
2018-09-29T06:54:51.624Z,1.90
2018-09-29T06:57:20.937Z,1.97
2018-09-29T06:59:50.457Z,1.40
2018-09-29T07:02:19.198Z,1.53
2018-09-29T07:04:48.080Z,1.30
2018-09-29T07:07:17.820Z,1.77
2018-09-29T07:09:46.902Z,1.43
2018-09-29T07:12:16.083Z,1.40
2018-09-29T07:14:45.523Z,1.40
2018-09-29T07:17:14.541Z,1.57
2018-09-29T07:19:43.731Z,1.73
2018-09-29T07:22:13.026Z,1.83
2018-09-29T07:24:41.860Z,1.63
2018-09-29T07:27:10.577Z,1.50
2018-09-29T07:29:39.701Z,1.15
2018-09-29T07:32:08.482Z,1.80
2018-09-29T07:34:38.354Z,1.70
2018-09-29T07:37:07.387Z,1.70
2018-09-29T07:39:36.573Z,2.30
2018-09-29T07:42:05.832Z,1.90
2018-09-29T07:44:35.298Z,1.57
2018-09-29T07:47:04.240Z,1.67
2018-09-29T07:49:33.033Z,1.40
2018-09-29T07:52:02.544Z,1.80
2018-09-29T07:54:31.448Z,1.80
2018-09-29T07:57:00.197Z,1.77
2018-09-29T07:59:29.332Z,1.90
2018-09-29T08:02:01.645Z,1.70
2018-09-29T08:04:30.773Z,1.33
2018-09-29T08:06:59.911Z,1.63
2018-09-29T08:09:29.133Z,1.60
2018-09-29T08:11:57.968Z,1.80
2018-09-29T08:14:27.579Z,1.83
2018-09-29T08:16:56.834Z,1.70
2018-09-29T08:19:27.148Z,1.70
2018-09-29T08:21:56.452Z,1.90
2018-09-29T08:24:25.157Z,1.30
2018-09-29T08:26:54.709Z,2.27
2018-09-29T08:29:24.958Z,2.80
2018-09-29T08:31:53.788Z,1.47
2018-09-29T08:34:22.611Z,2.40
2018-09-29T08:36:51.732Z,1.67
2018-09-29T08:39:21.148Z,1.97
2018-09-29T08:41:50.227Z,1.67
2018-09-29T08:44:19.623Z,1.93
2018-09-29T08:46:48.910Z,1.73
2018-09-29T08:49:17.812Z,2.10
2018-09-29T08:51:46.842Z,2.10
2018-09-29T08:54:16.497Z,2.83
2018-09-29T08:56:45.587Z,1.70
2018-09-29T08:59:14.829Z,2.20
2018-09-29T09:01:44.103Z,1.90
2018-09-29T09:04:13.143Z,1.70
2018-09-29T09:06:42.067Z,1.33
2018-09-29T09:09:12.164Z,1.67
2018-09-29T09:11:41.855Z,1.53
2018-09-29T09:14:11.005Z,1.80
2018-09-29T09:16:39.814Z,1.70
2018-09-29T09:19:09.683Z,1.65
2018-09-29T09:21:39.674Z,1.77
2018-09-29T09:24:09.156Z,2.30
2018-09-29T09:26:38.393Z,1.40
2018-09-29T09:29:07.532Z,1.97
2018-09-29T09:31:36.699Z,1.80
2018-09-29T09:34:05.747Z,2.40
2018-09-29T09:36:34.932Z,2.10
2018-09-29T09:39:05.025Z,2.00
2018-09-29T09:41:35.266Z,2.10
2018-09-29T09:44:05.044Z,2.70
2018-09-29T09:46:34.983Z,2.00
2018-09-29T09:49:04.817Z,1.80
2018-09-29T09:51:34.279Z,2.30
2018-09-29T09:54:03.677Z,2.13
2018-09-29T09:56:33.017Z,2.20
2018-09-29T09:59:01.935Z,1.60
2018-09-29T10:01:39.099Z,2.50
2018-09-29T10:04:08.345Z,1.80
2018-09-29T10:06:37.308Z,2.00
2018-09-29T10:09:09.763Z,2.33
2018-09-29T10:11:38.725Z,2.47
2018-09-29T10:14:08.218Z,2.27
2018-09-29T10:16:37.614Z,3.10
2018-09-29T10:19:07.935Z,2.20
2018-09-29T10:21:36.667Z,2.22
2018-09-29T10:24:05.763Z,2.10
2018-09-29T10:26:35.365Z,2.37
2018-09-29T10:29:04.308Z,2.60
2018-09-29T10:31:33.010Z,1.80
2018-09-29T10:34:02.716Z,2.45
2018-09-29T10:36:31.875Z,2.00
2018-09-29T10:39:01.159Z,2.12
2018-09-29T10:41:30.914Z,2.10
2018-09-29T10:44:00.238Z,2.90
2018-09-29T10:46:30.069Z,2.27
2018-09-29T10:48:58.958Z,2.45
2018-09-29T10:51:28.627Z,2.33
2018-09-29T10:53:57.383Z,2.72
2018-09-29T10:56:26.239Z,1.85
2018-09-29T10:58:55.762Z,2.80
2018-09-29T11:01:25.045Z,2.10
2018-09-29T11:03:53.868Z,2.27
2018-09-29T11:06:23.467Z,2.40
2018-09-29T11:08:52.885Z,2.20
2018-09-29T11:11:21.987Z,2.72
2018-09-29T11:13:51.325Z,2.30
2018-09-29T11:16:21.595Z,1.90
2018-09-29T11:18:51.354Z,2.60
2018-09-29T11:21:20.849Z,1.95
2018-09-29T11:23:49.989Z,2.10
2018-09-29T11:26:20.158Z,2.10
2018-09-29T11:28:49.691Z,1.85
2018-09-29T11:31:18.635Z,1.77
2018-09-29T11:33:47.398Z,1.90
2018-09-29T11:36:16.255Z,2.30
2018-09-29T11:38:44.978Z,2.60
2018-09-29T11:41:14.600Z,2.17
2018-09-29T11:43:43.683Z,1.77
2018-09-29T11:46:13.129Z,1.92
2018-09-29T11:48:42.345Z,1.60
2018-09-29T11:51:11.157Z,2.20
2018-09-29T11:53:40.766Z,2.00
2018-09-29T11:56:09.582Z,2.02
2018-09-29T11:58:38.468Z,2.50
2018-09-29T12:01:07.534Z,2.20
2018-09-29T12:03:36.444Z,2.00
2018-09-29T12:06:05.995Z,1.60
2018-09-29T12:08:35.268Z,1.98
2018-09-29T12:11:04.219Z,1.90
2018-09-29T12:13:32.904Z,2.20
2018-09-29T12:16:01.744Z,2.90
2018-09-29T12:18:31.158Z,1.60
2018-09-29T12:21:00.145Z,1.90
2018-09-29T12:23:29.508Z,2.05
2018-09-29T12:25:59.634Z,2.18
2018-09-29T12:28:28.958Z,2.12
2018-09-29T12:30:59.143Z,2.20
2018-09-29T12:33:28.242Z,1.67
2018-09-29T12:35:57.439Z,1.90
2018-09-29T12:38:26.765Z,1.82
2018-09-29T12:40:56.005Z,1.98
2018-09-29T12:43:25.062Z,2.67
2018-09-29T12:45:54.316Z,2.80
2018-09-29T12:48:23.984Z,1.55
2018-09-29T12:50:52.751Z,2.00
2018-09-29T12:53:21.640Z,2.22
2018-09-29T12:55:51.166Z,2.00
2018-09-29T12:58:20.229Z,2.27
2018-09-29T13:00:49.859Z,2.02
2018-09-29T13:03:19.025Z,2.10
2018-09-29T13:05:48.033Z,1.72
2018-09-29T13:08:17.450Z,1.90
2018-09-29T13:10:46.124Z,1.82
2018-09-29T13:13:14.792Z,1.80
2018-09-29T13:15:44.055Z,1.65
2018-09-29T13:18:13.260Z,1.65
2018-09-29T13:20:42.951Z,2.35
2018-09-29T13:23:13.634Z,1.70
2018-09-29T13:25:42.853Z,1.83
2018-09-29T13:28:12.171Z,1.60
2018-09-29T13:30:41.161Z,1.82
2018-09-29T13:33:10.420Z,1.43
2018-09-29T13:35:39.841Z,2.05
2018-09-29T13:38:08.966Z,2.13
2018-09-29T13:40:38.385Z,1.72
2018-09-29T13:43:07.325Z,1.97
2018-09-29T13:45:37.730Z,2.10
2018-09-29T13:48:07.935Z,2.20
2018-09-29T13:50:36.619Z,1.90
2018-09-29T13:53:05.685Z,1.57
2018-09-29T13:55:35.049Z,1.67
2018-09-29T13:58:03.903Z,2.20
2018-09-29T14:00:34.350Z,1.80
2018-09-29T14:03:03.052Z,1.50
2018-09-29T14:05:31.869Z,1.67
2018-09-29T14:08:09.787Z,2.07
2018-09-29T14:10:39.587Z,1.70
2018-09-29T14:13:09.990Z,2.00
2018-09-29T14:15:41.015Z,1.73
2018-09-29T14:18:10.420Z,1.93
2018-09-29T14:20:40.823Z,2.80
2018-09-29T14:23:09.881Z,1.80
2018-09-29T14:25:39.044Z,2.83
2018-09-29T14:28:09.266Z,2.07
2018-09-29T14:30:38.675Z,1.93
2018-09-29T14:33:08.316Z,2.13
2018-09-29T14:35:37.959Z,2.10
2018-09-29T14:38:07.641Z,1.90
2018-09-29T14:40:37.322Z,2.50
2018-09-29T14:43:07.124Z,2.23
2018-09-29T14:45:36.441Z,2.47
2018-09-29T14:48:06.850Z,2.83
2018-09-29T14:50:36.867Z,2.50
2018-09-29T14:53:07.376Z,2.20
2018-09-29T14:55:38.805Z,2.70
2018-09-29T14:58:08.410Z,2.50
2018-09-29T15:00:38.860Z,2.03
2018-09-29T15:03:07.955Z,2.90
2018-09-29T15:05:36.939Z,2.07
2018-09-29T15:08:06.656Z,2.07
2018-09-29T15:10:35.702Z,2.50
2018-09-29T15:13:04.706Z,2.00
2018-09-29T15:15:34.125Z,2.40
2018-09-29T15:18:03.241Z,1.70
2018-09-29T15:20:32.358Z,2.20
2018-09-29T15:23:01.285Z,2.00
2018-09-29T15:25:29.930Z,2.30
2018-09-29T15:27:58.794Z,1.80
2018-09-29T15:30:28.475Z,1.80
2018-09-29T15:32:57.432Z,1.73
2018-09-29T15:35:26.960Z,1.67
2018-09-29T15:37:56.026Z,2.70
2018-09-29T15:40:25.732Z,2.67
2018-09-29T15:42:55.549Z,1.90
2018-09-29T15:45:24.424Z,2.40
2018-09-29T15:47:53.649Z,1.63
2018-09-29T15:50:23.144Z,2.30
2018-09-29T15:52:52.119Z,1.80
2018-09-29T15:55:21.535Z,1.80
2018-09-29T15:57:50.871Z,2.40
2018-09-29T16:00:19.961Z,2.40
2018-09-29T16:02:50.211Z,2.17
2018-09-29T16:05:19.306Z,1.90
2018-09-29T16:07:48.806Z,2.77
2018-09-29T16:10:17.954Z,2.37
2018-09-29T16:12:46.867Z,1.67
2018-09-29T16:15:16.714Z,1.77
2018-09-29T16:17:46.056Z,1.80
2018-09-29T16:20:15.737Z,2.10
2018-09-29T16:22:44.970Z,2.10
2018-09-29T16:25:14.217Z,2.00
2018-09-29T16:27:43.461Z,1.77
2018-09-29T16:30:12.791Z,1.80
2018-09-29T16:32:41.812Z,1.80
2018-09-29T16:35:11.028Z,1.77
2018-09-29T16:37:40.396Z,1.67
2018-09-29T16:40:10.199Z,1.40
2018-09-29T16:42:39.754Z,1.97
2018-09-29T16:45:08.577Z,1.50
2018-09-29T16:47:38.726Z,2.00
2018-09-29T16:50:07.534Z,1.60
2018-09-29T16:52:37.702Z,1.90
2018-09-29T16:55:06.711Z,1.60
2018-09-29T16:57:35.787Z,2.17
2018-09-29T17:00:05.259Z,1.93
2018-09-29T17:02:35.057Z,2.00
2018-09-29T17:05:03.846Z,1.97
2018-09-29T17:07:32.687Z,2.13
2018-09-29T17:10:02.634Z,3.27
2018-09-29T17:12:33.045Z,2.00
2018-09-29T17:15:01.813Z,2.10
2018-09-29T17:17:30.811Z,2.20
2018-09-29T17:20:01.618Z,1.93
2018-09-29T17:22:30.328Z,2.07
2018-09-29T17:24:59.383Z,1.67
2018-09-29T17:27:28.388Z,1.90
2018-09-29T17:29:57.078Z,2.07
2018-09-29T17:32:25.973Z,1.75
2018-09-29T17:34:54.867Z,1.97
2018-09-29T17:37:23.766Z,1.50
2018-09-29T17:39:53.771Z,2.10
2018-09-29T17:42:22.927Z,2.17
2018-09-29T17:44:52.225Z,1.70
2018-09-29T17:47:20.946Z,2.42
2018-09-29T17:49:50.648Z,2.10
2018-09-29T17:52:20.907Z,2.73
2018-09-29T17:54:50.003Z,2.50
2018-09-29T17:57:19.227Z,2.37
2018-09-29T17:59:48.468Z,1.80
2018-09-29T18:02:17.742Z,2.20
2018-09-29T18:04:47.037Z,2.40
2018-09-29T18:07:15.786Z,1.87
2018-09-29T18:09:45.545Z,3.80
2018-09-29T18:12:14.282Z,2.13
2018-09-29T18:14:43.046Z,2.53
2018-09-29T18:17:13.091Z,2.13
2018-09-29T18:19:42.340Z,2.70
2018-09-29T18:22:11.371Z,2.10
2018-09-29T18:24:40.656Z,2.10
2018-09-29T18:27:09.946Z,2.00
2018-09-29T18:29:39.184Z,2.27
2018-09-29T18:32:08.297Z,2.50
2018-09-29T18:34:37.618Z,2.20
2018-09-29T18:37:06.802Z,2.23
2018-09-29T18:39:36.458Z,2.10
2018-09-29T18:42:05.348Z,2.27
2018-09-29T18:44:34.407Z,1.73
2018-09-29T18:47:03.891Z,2.17
2018-09-29T18:49:32.947Z,2.30
2018-09-29T18:52:02.257Z,2.30
2018-09-29T18:54:31.433Z,2.10
2018-09-29T18:57:00.711Z,3.23
2018-09-29T18:59:29.868Z,2.63
2018-09-29T19:01:59.132Z,2.00
2018-09-29T19:04:28.346Z,2.00
2018-09-29T19:06:57.513Z,3.17
2018-09-29T19:09:27.027Z,2.87
2018-09-29T19:11:56.080Z,2.80
2018-09-29T19:14:25.272Z,2.30
2018-09-29T19:16:54.457Z,3.10
2018-09-29T19:19:23.667Z,3.07
2018-09-29T19:21:52.709Z,2.83
2018-09-29T19:24:22.283Z,3.90
2018-09-29T19:26:51.382Z,3.83
2018-09-29T19:29:20.512Z,3.40
2018-09-29T19:31:49.838Z,3.03
2018-09-29T19:34:19.947Z,3.87
2018-09-29T19:36:49.127Z,9.63
2018-09-29T19:39:18.376Z,2.87
2018-09-29T19:41:47.691Z,3.70
2018-09-29T19:44:17.702Z,3.90
2018-09-29T19:46:47.779Z,4.10
2018-09-29T19:49:18.084Z,4.60
2018-09-29T19:51:47.303Z,3.63
2018-09-29T19:54:16.665Z,4.40
2018-09-29T19:56:45.872Z,4.27
2018-09-29T19:59:15.215Z,4.15
2018-09-29T20:01:44.363Z,4.27
2018-09-29T20:04:13.584Z,4.37
2018-09-29T20:06:42.689Z,4.63
2018-09-29T20:09:12.908Z,4.60
2018-09-29T20:11:42.275Z,4.77
2018-09-29T20:14:11.433Z,4.67
2018-09-29T20:16:40.874Z,4.13
2018-09-29T20:19:09.978Z,4.77
2018-09-29T20:21:39.230Z,4.13
2018-09-29T20:24:08.212Z,4.00
2018-09-29T20:26:37.502Z,4.57
2018-09-29T20:29:07.547Z,4.22
2018-09-29T20:31:37.084Z,5.30
2018-09-29T20:34:06.162Z,4.90
2018-09-29T20:36:35.589Z,5.53
2018-09-29T20:39:06.787Z,3.90
2018-09-29T20:41:35.929Z,4.80
2018-09-29T20:44:05.648Z,4.30
2018-09-29T20:46:35.692Z,4.43
2018-09-29T20:49:04.724Z,4.00
2018-09-29T20:51:33.643Z,4.73
2018-09-29T20:54:04.033Z,4.53
2018-09-29T20:56:33.047Z,4.67
2018-09-29T20:59:02.384Z,4.40
2018-09-29T21:01:31.363Z,4.70
2018-09-29T21:04:00.638Z,4.63
2018-09-29T21:06:29.442Z,3.85
2018-09-29T21:08:58.415Z,4.60
2018-09-29T21:11:27.407Z,4.43
2018-09-29T21:13:56.392Z,3.40
2018-09-29T21:16:25.364Z,4.12
2018-09-29T21:18:55.030Z,4.23
2018-09-29T21:21:24.086Z,3.93
2018-09-29T21:23:53.613Z,3.63
2018-09-29T21:26:23.984Z,3.83
2018-09-29T21:28:52.919Z,3.60
2018-09-29T21:31:22.049Z,4.40
2018-09-29T21:33:51.677Z,4.10
2018-09-29T21:36:20.530Z,3.63
2018-09-29T21:38:49.747Z,4.00
2018-09-29T21:41:19.019Z,4.20
2018-09-29T21:43:47.832Z,4.20
2018-09-29T21:46:16.448Z,3.50
2018-09-29T21:48:45.702Z,4.27
2018-09-29T21:51:17.028Z,3.97
2018-09-29T21:53:46.097Z,3.63
2018-09-29T21:56:15.371Z,4.17
2018-09-29T21:58:44.392Z,3.40
2018-09-29T22:01:18.660Z,3.73
2018-09-29T22:03:47.743Z,3.42
2018-09-29T22:06:17.221Z,3.40
2018-09-29T22:08:46.183Z,3.80
2018-09-29T22:11:15.520Z,3.80
2018-09-29T22:13:44.778Z,3.83
2018-09-29T22:16:14.028Z,3.40
2018-09-29T22:18:43.174Z,3.80
2018-09-29T22:21:12.571Z,3.75
2018-09-29T22:23:41.898Z,3.40
2018-09-29T22:26:11.004Z,3.73
2018-09-29T22:28:40.423Z,3.77
2018-09-29T22:31:09.276Z,3.27
2018-09-29T22:33:38.281Z,3.83
2018-09-29T22:36:07.633Z,3.40
2018-09-29T22:38:36.327Z,4.20
2018-09-29T22:41:05.110Z,4.40
2018-09-29T22:43:34.404Z,4.57
2018-09-29T22:46:03.763Z,3.90
2018-09-29T22:48:32.750Z,3.27
2018-09-29T22:51:02.205Z,3.90
2018-09-29T22:53:31.192Z,3.63
2018-09-29T22:56:00.332Z,4.10
2018-09-29T22:58:29.782Z,3.43
2018-09-29T23:00:58.961Z,3.40
2018-09-29T23:03:28.549Z,3.30
2018-09-29T23:05:57.353Z,4.07
2018-09-29T23:08:26.565Z,3.60
2018-09-29T23:10:55.494Z,4.03
2018-09-29T23:13:24.233Z,3.90
2018-09-29T23:15:53.485Z,3.70
2018-09-29T23:18:22.368Z,3.73
2018-09-29T23:20:50.973Z,3.63
2018-09-29T23:23:20.078Z,3.40
2018-09-29T23:25:50.323Z,4.03
2018-09-29T23:28:19.068Z,3.50
2018-09-29T23:30:48.659Z,4.37
2018-09-29T23:33:17.497Z,4.10
2018-09-29T23:35:47.116Z,4.47
2018-09-29T23:38:15.970Z,4.37
2018-09-29T23:40:45.574Z,3.70
2018-09-29T23:43:15.724Z,4.10
2018-09-29T23:45:44.988Z,4.17
2018-09-29T23:48:14.220Z,3.80
2018-09-29T23:50:43.571Z,3.50
2018-09-29T23:53:12.245Z,3.50
2018-09-29T23:55:41.795Z,3.73
2018-09-29T23:58:11.254Z,3.58
